ADDS METAR Data INFO
IDs: Format: Raw Decoded Include TAF

Data at: 1750 UTC 24 Mar 2017

METAR for:KJCT (Junction/Kimble Cnty, TX, US)
Text:KJCT 241651Z AUTO 29011G22KT 10SM CLR 22/M01 A2999 RMK AO2 SLP124 T02221011
Temperature: 22.2°C ( 72°F)
Dewpoint: -1.1°C ( 30°F) [RH = 21%]
Pressure (altimeter):29.99 inches Hg (1015.7 mb) [Sea level pressure: 1012.4 mb]
Winds:from the WNW (290 degrees) at 13 MPH (11 knots; 5.7 m/s) gusting to 25 MPH (22 knots; 11.3 m/s)
Visibility:10 or more sm (16+ km)
Ceiling:at least 12,000 feet AGL
Clouds:sky clear below 12,000 feet AGL
QC Flag:automated observation with no human augmentation


Page loaded:  17:50 UTC  |   10:50 AM Pacific  |   11:50 AM Mountain  |   12:50 PM Central  |   01:50 PM Eastern

 

ADVISORIES

FORECASTS

FORECASTS

OBSERVATIONS

USER TOOLS

ABOUT US